createdAt,value
2023-03-04T00:00:56.475Z,78.72
2023-03-04T00:04:03.466Z,78.47
2023-03-04T00:07:09.449Z,79.04
2023-03-04T00:10:16.438Z,78.93
2023-03-04T00:13:22.501Z,79.05
2023-03-04T00:16:31.995Z,79.07
2023-03-04T00:19:38.026Z,80.12
2023-03-04T00:22:44.752Z,79.74
2023-03-04T00:25:50.692Z,79.51
2023-03-04T00:28:57.512Z,79.28
2023-03-04T00:32:08.267Z,79.22
2023-03-04T00:35:15.082Z,79.71
2023-03-04T00:38:21.049Z,79.65
2023-03-04T00:41:27.980Z,79.90
2023-03-04T00:44:33.959Z,79.46
2023-03-04T00:47:43.459Z,78.88
2023-03-04T00:50:49.461Z,78.90
2023-03-04T00:53:56.206Z,78.95
2023-03-04T00:57:02.269Z,79.51
2023-03-04T01:00:11.467Z,79.41
2023-03-04T01:03:20.051Z,79.56
2023-03-04T01:06:27.128Z,79.67
2023-03-04T01:09:33.340Z,80.14
2023-03-04T01:12:40.402Z,80.52
2023-03-04T01:15:46.683Z,80.52
2023-03-04T01:18:56.234Z,80.48
2023-03-04T01:22:02.177Z,79.81
2023-03-04T01:25:11.201Z,80.20
2023-03-04T01:28:17.670Z,80.06
2023-03-04T01:31:24.529Z,79.81
2023-03-04T01:34:33.770Z,79.60
2023-03-04T01:37:40.953Z,79.49
2023-03-04T01:40:48.764Z,79.67
2023-03-04T01:43:57.352Z,79.72
2023-03-04T01:47:03.627Z,79.44
2023-03-04T01:50:25.138Z,79.33
2023-03-04T01:53:39.796Z,79.87
2023-03-04T01:56:52.219Z,79.49
2023-03-04T02:00:26.715Z,79.93
2023-03-04T02:03:34.120Z,78.97
2023-03-04T02:06:46.021Z,79.46
2023-03-04T02:09:56.632Z,79.90
2023-03-04T02:13:04.548Z,79.69
2023-03-04T02:16:11.621Z,79.51
2023-03-04T02:19:38.753Z,79.01
2023-03-04T02:23:11.070Z,78.65
2023-03-04T02:26:23.205Z,78.33
2023-03-04T02:29:32.570Z,78.50
2023-03-04T02:32:38.937Z,78.51
2023-03-04T02:35:46.084Z,78.47
2023-03-04T02:38:54.558Z,78.54
2023-03-04T02:42:06.316Z,78.22
2023-03-04T02:45:40.558Z,78.18
2023-03-04T02:48:47.924Z,78.79
2023-03-04T02:52:01.468Z,78.31
2023-03-04T02:55:09.558Z,78.45
2023-03-04T02:58:19.075Z,78.64
2023-03-04T03:01:30.803Z,78.75
2023-03-04T03:04:41.538Z,78.59
2023-03-04T03:07:51.262Z,78.38
2023-03-04T03:10:58.185Z,78.27
2023-03-04T03:14:08.666Z,78.51
2023-03-04T03:17:15.456Z,78.78
2023-03-04T03:20:28.893Z,78.88
2023-03-04T03:23:35.624Z,79.13
2023-03-04T03:26:42.489Z,78.86
2023-03-04T03:29:51.998Z,78.83
2023-03-04T03:33:09.879Z,78.96
2023-03-04T03:36:25.233Z,78.63
2023-03-04T03:39:31.258Z,78.65
2023-03-04T03:42:38.064Z,78.40
2023-03-04T03:45:46.948Z,78.05
2023-03-04T03:48:53.739Z,78.48
2023-03-04T03:51:59.934Z,78.23
2023-03-04T03:55:10.959Z,77.80
2023-03-04T03:58:17.342Z,77.94
2023-03-04T04:01:26.742Z,77.60
2023-03-04T04:04:32.695Z,78.43
2023-03-04T04:07:41.973Z,78.12
2023-03-04T04:10:48.102Z,77.69
2023-03-04T04:13:54.823Z,77.85
2023-03-04T04:17:04.049Z,77.78
2023-03-04T04:20:13.703Z,78.98
2023-03-04T04:23:19.842Z,78.51
2023-03-04T04:26:29.128Z,78.53
2023-03-04T04:29:35.054Z,78.62
2023-03-04T04:32:44.377Z,78.25
2023-03-04T04:35:52.513Z,77.92
2023-03-04T04:38:59.267Z,77.86
2023-03-04T04:42:05.546Z,77.34
2023-03-04T04:45:14.085Z,76.85
2023-03-04T04:48:22.671Z,77.24
2023-03-04T04:51:29.810Z,77.68
2023-03-04T04:54:36.150Z,77.71
2023-03-04T04:57:42.950Z,78.10
2023-03-04T05:00:52.890Z,78.09
2023-03-04T05:04:02.279Z,78.38
2023-03-04T05:07:08.425Z,78.36
2023-03-04T05:10:16.017Z,78.64
2023-03-04T05:13:26.772Z,78.41
2023-03-04T05:16:34.248Z,78.77
2023-03-04T05:19:49.924Z,79.00
2023-03-04T05:22:59.482Z,79.12
2023-03-04T05:26:09.276Z,79.10
2023-03-04T05:29:18.004Z,78.98
2023-03-04T05:32:24.122Z,78.92
2023-03-04T05:35:38.567Z,78.62
2023-03-04T05:38:45.855Z,78.76
2023-03-04T05:41:52.514Z,78.55
2023-03-04T05:44:58.631Z,78.65
2023-03-04T05:48:13.461Z,78.45
2023-03-04T05:51:26.269Z,78.01
2023-03-04T05:54:35.025Z,77.61
2023-03-04T05:57:40.959Z,77.34
2023-03-04T06:00:50.700Z,77.38
2023-03-04T06:03:56.777Z,77.55
2023-03-04T06:07:09.850Z,77.58
2023-03-04T06:10:24.649Z,77.66
2023-03-04T06:13:31.664Z,77.57
2023-03-04T06:16:37.609Z,77.22
2023-03-04T06:19:44.773Z,77.14
2023-03-04T06:22:53.915Z,77.34
2023-03-04T06:26:04.003Z,77.35
2023-03-04T06:29:10.656Z,77.37
2023-03-04T06:32:17.609Z,77.11
2023-03-04T06:35:24.649Z,77.38
2023-03-04T06:38:34.394Z,76.80
2023-03-04T06:41:42.010Z,76.78
2023-03-04T06:44:54.903Z,76.46
2023-03-04T06:48:01.301Z,76.97
2023-03-04T06:51:19.915Z,76.38
2023-03-04T06:54:28.995Z,76.38
2023-03-04T06:57:35.696Z,76.33
2023-03-04T07:00:41.516Z,76.67
2023-03-04T07:03:49.921Z,76.29
2023-03-04T07:07:05.911Z,75.52
2023-03-04T07:10:27.420Z,75.19
2023-03-04T07:13:38.368Z,74.95
2023-03-04T07:16:45.326Z,75.15
2023-03-04T07:19:51.751Z,74.21
2023-03-04T07:22:58.527Z,74.39
2023-03-04T07:26:07.313Z,73.92
2023-03-04T07:29:14.050Z,73.13
2023-03-04T07:32:20.258Z,73.04
2023-03-04T07:35:26.933Z,72.63
2023-03-04T07:38:32.867Z,72.26
2023-03-04T07:41:43.306Z,72.98
2023-03-04T07:45:00.377Z,73.18
2023-03-04T07:48:30.936Z,73.38
2023-03-04T07:51:44.694Z,73.33
2023-03-04T07:54:51.489Z,73.62
2023-03-04T07:58:01.863Z,73.33
2023-03-04T08:01:13.604Z,72.85
2023-03-04T08:04:19.685Z,72.91
2023-03-04T08:07:28.957Z,72.54
2023-03-04T08:10:34.961Z,72.17
2023-03-04T08:13:45.106Z,72.70
2023-03-04T08:16:51.089Z,72.56
2023-03-04T08:19:57.910Z,73.07
2023-03-04T08:23:03.772Z,72.49
2023-03-04T08:26:13.968Z,72.36
2023-03-04T08:29:26.318Z,72.53
2023-03-04T08:32:33.501Z,72.43
2023-03-04T08:35:46.811Z,72.94
2023-03-04T08:38:53.720Z,72.24
2023-03-04T08:41:59.593Z,71.92
2023-03-04T08:45:16.948Z,71.27
2023-03-04T08:48:23.767Z,70.96
2023-03-04T08:51:35.936Z,70.57
2023-03-04T08:54:41.782Z,70.15
2023-03-04T08:57:48.551Z,70.28
2023-03-04T09:01:09.754Z,69.61
2023-03-04T09:04:16.646Z,69.62
2023-03-04T09:07:22.647Z,69.77
2023-03-04T09:10:30.180Z,69.89
2023-03-04T09:13:37.394Z,69.40
2023-03-04T09:16:46.648Z,69.40
2023-03-04T09:19:52.591Z,69.55
2023-03-04T09:23:02.563Z,69.69
2023-03-04T09:26:19.334Z,68.89
2023-03-04T09:29:26.554Z,68.90
2023-03-04T09:32:47.837Z,69.26
2023-03-04T09:35:59.228Z,69.43
2023-03-04T09:39:07.176Z,69.32
2023-03-04T09:42:29.125Z,69.56
2023-03-04T09:45:48.724Z,68.84
2023-03-04T09:49:00.186Z,68.79
2023-03-04T09:52:27.025Z,68.48
2023-03-04T09:55:40.742Z,69.56
2023-03-04T09:59:05.706Z,69.46
2023-03-04T10:02:38.096Z,70.18
2023-03-04T10:05:58.968Z,69.53
2023-03-04T10:09:16.691Z,69.60
2023-03-04T10:12:34.716Z,70.20
2023-03-04T10:15:46.504Z,69.88
2023-03-04T10:19:08.092Z,70.73
2023-03-04T10:22:39.453Z,71.01
2023-03-04T10:25:53.939Z,71.74
2023-03-04T10:29:03.179Z,72.39
2023-03-04T10:32:12.917Z,72.39
2023-03-04T10:35:39.415Z,72.41
2023-03-04T10:38:48.993Z,73.27
2023-03-04T10:42:03.795Z,73.44
2023-03-04T10:45:26.212Z,73.80
2023-03-04T10:48:35.467Z,73.82
2023-03-04T10:51:47.973Z,74.89
2023-03-04T10:55:01.657Z,74.83
2023-03-04T10:58:10.529Z,75.36
2023-03-04T11:01:26.713Z,75.59
2023-03-04T11:04:37.980Z,75.54
2023-03-04T11:07:55.563Z,75.57
2023-03-04T11:11:04.902Z,75.25
2023-03-04T11:14:26.277Z,74.49
2023-03-04T11:17:48.645Z,73.88
2023-03-04T11:21:01.181Z,73.68
2023-03-04T11:24:29.204Z,73.18
2023-03-04T11:27:54.406Z,72.33
2023-03-04T11:31:07.115Z,72.45
2023-03-04T11:34:35.062Z,72.93
2023-03-04T11:37:49.736Z,73.01
2023-03-04T11:41:04.753Z,72.95
2023-03-04T11:44:18.043Z,73.11
2023-03-04T11:47:48.161Z,73.27
2023-03-04T11:51:05.906Z,72.95
2023-03-04T11:54:32.961Z,72.92
2023-03-04T11:57:59.545Z,73.66
2023-03-04T12:01:16.159Z,73.47
2023-03-04T12:04:52.046Z,73.30
2023-03-04T12:08:38.118Z,73.29
2023-03-04T12:12:12.899Z,73.28
2023-03-04T12:15:32.013Z,72.84
2023-03-04T12:19:06.396Z,72.26
2023-03-04T12:22:34.366Z,72.22
2023-03-04T12:26:08.384Z,71.50
2023-03-04T12:29:38.684Z,71.36
2023-03-04T12:33:01.300Z,71.28
2023-03-04T12:36:37.630Z,71.06
2023-03-04T12:40:27.982Z,69.94
2023-03-04T12:43:50.693Z,68.24
2023-03-04T12:47:37.356Z,68.81
2023-03-04T12:51:07.151Z,67.96
2023-03-04T12:54:32.076Z,68.12
2023-03-04T12:57:41.239Z,67.98
2023-03-04T13:01:06.259Z,67.92
2023-03-04T13:04:26.913Z,68.01
2023-03-04T13:07:53.141Z,67.63
2023-03-04T13:11:47.585Z,67.05
2023-03-04T13:15:35.091Z,67.10
2023-03-04T13:18:42.284Z,66.92
2023-03-04T13:21:55.220Z,67.43
2023-03-04T13:25:26.267Z,67.68
2023-03-04T13:28:38.031Z,67.27
2023-03-04T13:32:04.481Z,67.50
2023-03-04T13:35:50.738Z,67.17
2023-03-04T13:39:08.907Z,67.30
2023-03-04T13:42:44.417Z,67.45
2023-03-04T13:45:53.943Z,67.11
2023-03-04T13:49:18.749Z,66.90
2023-03-04T13:52:46.760Z,66.93
2023-03-04T13:56:26.407Z,67.02
2023-03-04T13:59:48.945Z,66.56
2023-03-04T14:02:57.458Z,65.93
2023-03-04T14:06:22.921Z,66.56
2023-03-04T14:09:32.146Z,66.23
2023-03-04T14:12:44.558Z,65.91
2023-03-04T14:16:00.054Z,65.78
2023-03-04T14:19:19.022Z,65.36
2023-03-04T14:22:31.145Z,65.39
2023-03-04T14:25:39.297Z,65.18
2023-03-04T14:28:51.864Z,65.53
2023-03-04T14:32:01.585Z,65.41
2023-03-04T14:35:23.119Z,65.45
2023-03-04T14:38:36.392Z,65.14
2023-03-04T14:41:46.233Z,65.06
2023-03-04T14:44:56.211Z,64.79
2023-03-04T14:48:09.319Z,64.81
2023-03-04T14:51:41.767Z,65.30
2023-03-04T14:55:03.569Z,65.63
2023-03-04T14:58:27.011Z,65.33
2023-03-04T15:01:37.752Z,65.68
2023-03-04T15:04:44.695Z,65.45
2023-03-04T15:08:00.429Z,65.44
2023-03-04T15:11:11.313Z,65.40
2023-03-04T15:14:45.679Z,65.50
2023-03-04T15:18:01.621Z,65.77
2023-03-04T15:21:36.985Z,65.88
2023-03-04T15:24:46.302Z,65.64
2023-03-04T15:27:54.352Z,65.54
2023-03-04T15:31:01.228Z,65.50
2023-03-04T15:34:16.159Z,65.83
2023-03-04T15:37:29.666Z,65.32
2023-03-04T15:40:43.554Z,65.81
2023-03-04T15:43:50.518Z,66.17
2023-03-04T15:46:56.553Z,66.28
2023-03-04T15:50:03.851Z,65.95
2023-03-04T15:53:18.386Z,66.29
2023-03-04T15:56:31.298Z,66.23
2023-03-04T15:59:37.402Z,66.35
2023-03-04T16:02:45.037Z,66.34
2023-03-04T16:05:54.836Z,66.53
2023-03-04T16:09:07.096Z,66.45
2023-03-04T16:12:17.867Z,66.97
2023-03-04T16:15:29.055Z,66.72
2023-03-04T16:18:35.108Z,66.60
2023-03-04T16:21:42.165Z,66.69
2023-03-04T16:24:48.401Z,66.98
2023-03-04T16:28:02.865Z,66.85
2023-03-04T16:31:09.433Z,66.66
2023-03-04T16:34:18.713Z,66.57
2023-03-04T16:37:25.046Z,66.69
2023-03-04T16:40:34.588Z,66.68
2023-03-04T16:43:44.108Z,66.40
2023-03-04T16:46:50.912Z,65.94
2023-03-04T16:49:57.875Z,66.66
2023-03-04T16:53:04.925Z,66.95
2023-03-04T16:56:18.588Z,66.91
2023-03-04T16:59:31.593Z,67.14
2023-03-04T17:02:37.656Z,67.13
2023-03-04T17:05:44.578Z,66.92
2023-03-04T17:08:51.210Z,67.33
2023-03-04T17:11:59.988Z,67.34
2023-03-04T17:15:10.917Z,67.54
2023-03-04T17:18:17.842Z,67.59
2023-03-04T17:21:28.002Z,67.80
2023-03-04T17:24:35.450Z,67.61
2023-03-04T17:27:41.941Z,67.75
2023-03-04T17:30:51.497Z,67.99
2023-03-04T17:33:57.573Z,67.95
2023-03-04T17:37:04.496Z,67.90
2023-03-04T17:40:15.193Z,68.17
2023-03-04T17:43:22.227Z,68.10
2023-03-04T17:46:33.447Z,68.62
2023-03-04T17:49:44.787Z,68.16
2023-03-04T17:52:50.809Z,68.29
2023-03-04T17:56:02.215Z,68.44
2023-03-04T17:59:15.589Z,68.24
2023-03-04T18:02:25.298Z,68.48
2023-03-04T18:05:31.330Z,68.21
2023-03-04T18:08:38.255Z,67.78
2023-03-04T18:11:45.512Z,68.04
2023-03-04T18:14:52.384Z,67.74
2023-03-04T18:18:01.071Z,67.79
2023-03-04T18:21:08.951Z,67.73
2023-03-04T18:24:18.039Z,68.06
2023-03-04T18:27:25.099Z,67.83
2023-03-04T18:30:31.236Z,68.04
2023-03-04T18:33:41.960Z,68.21
2023-03-04T18:36:47.917Z,68.15
2023-03-04T18:39:54.777Z,68.58
2023-03-04T18:43:01.021Z,68.62
2023-03-04T18:46:14.897Z,68.50
2023-03-04T18:49:25.175Z,68.61
2023-03-04T18:52:32.130Z,68.86
2023-03-04T18:55:38.153Z,68.83
2023-03-04T18:58:50.624Z,68.46
2023-03-04T19:01:58.765Z,68.68
2023-03-04T19:05:15.824Z,69.39
2023-03-04T19:08:21.936Z,69.48
2023-03-04T19:11:30.152Z,69.71
2023-03-04T19:14:36.804Z,69.53
2023-03-04T19:17:45.545Z,69.39
2023-03-04T19:20:54.358Z,69.92
2023-03-04T19:24:01.615Z,69.75
2023-03-04T19:27:08.321Z,69.76
2023-03-04T19:30:18.964Z,69.97
2023-03-04T19:33:26.801Z,69.85
2023-03-04T19:36:38.701Z,69.86
2023-03-04T19:39:46.180Z,69.72
2023-03-04T19:42:57.069Z,70.14
2023-03-04T19:46:03.220Z,70.12
2023-03-04T19:49:10.574Z,70.38
2023-03-04T19:52:19.329Z,70.24
2023-03-04T19:55:26.377Z,70.87
2023-03-04T19:58:32.440Z,71.70
2023-03-04T20:01:40.972Z,72.32
2023-03-04T20:04:47.202Z,72.50
2023-03-04T20:07:57.024Z,72.36
2023-03-04T20:11:03.189Z,72.72
2023-03-04T20:14:10.301Z,72.65
2023-03-04T20:17:22.505Z,73.04
2023-03-04T20:20:33.232Z,72.93
2023-03-04T20:23:41.993Z,72.90
2023-03-04T20:26:49.381Z,72.88
2023-03-04T20:30:04.255Z,72.92
2023-03-04T20:33:25.699Z,73.11
2023-03-04T20:36:34.769Z,72.98
2023-03-04T20:39:44.569Z,72.64
2023-03-04T20:42:50.971Z,72.74
2023-03-04T20:45:58.085Z,72.75
2023-03-04T20:49:08.044Z,72.41
2023-03-04T20:52:34.135Z,72.25
2023-03-04T20:55:54.100Z,72.26
2023-03-04T20:59:15.788Z,72.49
2023-03-04T21:02:23.720Z,72.37
2023-03-04T21:05:30.599Z,72.46
2023-03-04T21:08:36.622Z,72.17
2023-03-04T21:11:48.401Z,72.44
2023-03-04T21:14:54.398Z,72.03
2023-03-04T21:18:01.169Z,72.14
2023-03-04T21:21:14.419Z,72.84
2023-03-04T21:24:29.479Z,72.34
2023-03-04T21:27:42.791Z,72.40
2023-03-04T21:30:49.826Z,72.63
2023-03-04T21:34:00.441Z,72.41
2023-03-04T21:37:09.203Z,72.83
2023-03-04T21:40:21.164Z,73.54
2023-03-04T21:43:36.724Z,73.57
2023-03-04T21:46:49.243Z,73.53
2023-03-04T21:50:03.759Z,73.61
2023-03-04T21:53:09.826Z,73.74
2023-03-04T21:56:17.503Z,73.50
2023-03-04T21:59:35.548Z,73.43
2023-03-04T22:02:42.776Z,71.25
2023-03-04T22:05:51.638Z,71.11
2023-03-04T22:08:59.950Z,73.53
2023-03-04T22:12:06.207Z,73.63
2023-03-04T22:15:15.879Z,73.80
2023-03-04T22:18:21.864Z,74.79
2023-03-04T22:21:30.616Z,75.69
2023-03-04T22:24:36.710Z,75.21
2023-03-04T22:27:43.696Z,75.18
2023-03-04T22:30:52.399Z,74.89
2023-03-04T22:34:00.270Z,74.90
2023-03-04T22:37:09.514Z,74.69
2023-03-04T22:40:18.104Z,75.06
2023-03-04T22:43:24.090Z,75.30
2023-03-04T22:46:43.915Z,74.42
2023-03-04T22:49:49.953Z,74.72
2023-03-04T22:52:59.776Z,75.36
2023-03-04T22:56:11.220Z,75.56
2023-03-04T22:59:18.044Z,75.67
2023-03-04T23:02:27.128Z,75.98
2023-03-04T23:05:36.410Z,76.38
2023-03-04T23:08:46.489Z,76.68
2023-03-04T23:11:58.832Z,76.54
2023-03-04T23:15:08.523Z,76.86
2023-03-04T23:18:18.224Z,77.27
2023-03-04T23:21:33.982Z,77.45
2023-03-04T23:24:42.583Z,77.66
2023-03-04T23:27:51.220Z,77.60
2023-03-04T23:30:58.315Z,78.03
2023-03-04T23:34:08.149Z,78.07
2023-03-04T23:37:14.946Z,78.57
2023-03-04T23:40:21.400Z,78.44
2023-03-04T23:43:30.202Z,77.87
2023-03-04T23:46:37.922Z,77.73
2023-03-04T23:49:47.423Z,77.49
2023-03-04T23:52:53.543Z,77.91
2023-03-04T23:56:00.330Z,77.96
2023-03-04T23:59:07.973Z,77.90
